Oakland, MD

3:41 AM EDT on April 25, 2015 (GMT -0400)
3634 Hutton Road | | Change Station
CLOSE
Current Station
Personal Weather Station
Location: Oakland, MD
Elevation: 2562 ft
Nearby Weather Stations

Elev 2562 ft 39.39 °N, 79.44 °W | Updated 12 minutes ago

Partly Cloudy
Partly Cloudy
32.7 °F
Feels Like 33 °F
N
0.0
Wind Variable Wind from SSW

Today
High -- | Low -- °F
--% Chance of Precip.
Yesterday
High -- | Low -- °F
Precip. -- in
6:26 AM 8:04 PM
Waxing Crescent, 43% visible
Pressure 29.93 in
Visibility 10.0 miles
Clouds Mostly Cloudy 6500 ft
Mostly Cloudy 9500 ft
Mostly Cloudy 12000 ft
Windchill 33 °F
Dew Point 27 °F
Humidity 78%
Rainfall 0.00 in
Snow Depth Not available.
UV 0 out of 12
Pollen 10.20 out of 12
Air Quality Not available.
Flu Activity Regional
METAR K2G4 250725Z AUTO 00000KT 10SM BKN065 BKN095 BKN120 02/M08 A2993 RMK AO1

More Conditions Fewer Conditions

Pressure 29.93 in
Visibility 10.0 miles
Clouds Mostly Cloudy 6500 ft
Mostly Cloudy 9500 ft
Mostly Cloudy 12000 ft
Windchill 33 °F
Dew Point 27 °F
Humidity 78%
Rainfall 0.00 in
Snow Depth Not available.
UV 0 out of 12
Pollen 10.20 out of 12
Air Quality Not available.
Flu Activity Regional
METAR K2G4 250725Z AUTO 00000KT 10SM BKN065 BKN095 BKN120 02/M08 A2993 RMK AO1

More Conditions Fewer Conditions

10-Day Weather Forecast

Almanac

Astronomy

Apr. 25, 2015 Rise Set
Actual Time
Civil Twilight
Nautical Twilight
Astronomical Twilight
Moon
Length of Visible Light
Length of Day
Tomorrow will be .
, % of the Moon is Illuminated

Today's Extremes

State Highs State Lows

Community

WunderPhotos

Upload Photos

1,816,624 photos uploaded!

WunderBlogs® & News

Nearby

Air Quality

  Air Quality AQ Index Pollutant
Not available.

Snow Depth

Station Depth Elevation

Earthquake Activity

City Distance Mag. Time & Date
Minimum magnitude displayed is 2.5.

Coastal Water Temperatures

Place Temperature

Stations

Nearby Weather Stations

Station Location Temp. Windchill Dew Point Humidity Wind Precip. Elev Updated Type